createdAt,value
2018-06-01T00:01:08.027Z,99058.99
2018-06-01T00:03:37.122Z,99049.34
2018-06-01T00:06:06.358Z,99045.97
2018-06-01T00:08:35.805Z,99049.80
2018-06-01T00:11:04.564Z,99052.09
2018-06-01T00:13:33.487Z,99044.77
2018-06-01T00:16:02.499Z,99051.84
2018-06-01T00:18:31.816Z,99051.81
2018-06-01T00:21:01.378Z,99059.62
2018-06-01T00:23:30.172Z,99053.00
2018-06-01T00:25:58.868Z,99052.00
2018-06-01T00:28:27.440Z,99041.70
2018-06-01T00:30:57.153Z,99045.35
2018-06-01T00:33:25.665Z,99042.13
2018-06-01T00:35:55.344Z,99037.60
2018-06-01T00:38:24.396Z,99047.67
2018-06-01T00:40:53.159Z,99052.94
2018-06-01T00:43:21.846Z,99049.66
2018-06-01T00:45:51.395Z,99048.83
2018-06-01T00:48:20.193Z,99052.55
2018-06-01T00:50:49.713Z,99046.03
2018-06-01T00:53:18.240Z,99051.23
2018-06-01T00:55:47.003Z,99055.08
2018-06-01T00:58:15.800Z,99054.17
2018-06-01T01:00:44.427Z,99055.81
2018-06-01T01:03:13.376Z,99064.37
2018-06-01T01:05:42.567Z,99059.81
2018-06-01T01:08:12.904Z,99059.94
2018-06-01T01:10:42.469Z,99053.90
2018-06-01T01:13:11.155Z,99057.00
2018-06-01T01:15:39.947Z,99061.17
2018-06-01T01:18:11.886Z,99060.14
2018-06-01T01:20:40.582Z,99055.87
2018-06-01T01:23:09.091Z,99059.09
2018-06-01T01:25:37.887Z,99062.33
2018-06-01T01:28:06.549Z,99067.34
2018-06-01T01:30:36.079Z,99064.02
2018-06-01T01:33:05.814Z,99070.56
2018-06-01T01:35:35.910Z,99067.29
2018-06-01T01:38:04.956Z,99071.16
2018-06-01T01:40:33.596Z,99075.70
2018-06-01T01:43:02.354Z,99072.53
2018-06-01T01:45:31.015Z,99075.59
2018-06-01T01:47:59.838Z,99080.20
2018-06-01T01:50:28.749Z,99079.98
2018-06-01T01:52:57.560Z,99074.38
2018-06-01T01:55:26.371Z,99077.95
2018-06-01T01:57:55.060Z,99070.50
2018-06-01T02:00:24.536Z,99076.28
2018-06-01T02:02:53.105Z,99075.77
2018-06-01T02:05:21.820Z,99081.67
2018-06-01T02:07:51.422Z,99073.84
2018-06-01T02:10:20.980Z,99070.14
2018-06-01T02:12:49.887Z,99071.76
2018-06-01T02:15:19.820Z,99070.65
2018-06-01T02:17:48.522Z,99066.06
2018-06-01T02:20:17.304Z,99067.36
2018-06-01T02:22:46.150Z,99067.59
2018-06-01T02:25:15.564Z,99062.02
2018-06-01T02:27:44.095Z,99061.18
2018-06-01T02:30:12.756Z,99063.97
2018-06-01T02:32:42.163Z,99064.30
2018-06-01T02:35:11.217Z,99069.30
2018-06-01T02:37:40.845Z,99069.50
2018-06-01T02:40:10.019Z,99074.38
2018-06-01T02:42:38.779Z,99077.36
2018-06-01T02:45:07.477Z,99081.16
2018-06-01T02:47:36.299Z,99079.64
2018-06-01T02:50:05.095Z,99079.50
2018-06-01T02:52:33.679Z,99084.79
2018-06-01T02:55:03.412Z,99087.46
2018-06-01T02:57:32.860Z,99084.90
2018-06-01T03:00:01.390Z,99086.28
2018-06-01T03:02:29.993Z,99092.44
2018-06-01T03:04:58.790Z,99095.91
2018-06-01T03:07:27.832Z,99092.21
2018-06-01T03:09:57.418Z,99095.75
2018-06-01T03:12:26.148Z,99093.23
2018-06-01T03:14:54.943Z,99090.35
2018-06-01T03:17:24.171Z,99089.27
2018-06-01T03:19:52.971Z,99094.03
2018-06-01T03:22:21.692Z,99090.97
2018-06-01T03:24:50.332Z,99091.25
2018-06-01T03:27:19.079Z,99092.58
2018-06-01T03:29:48.738Z,99088.34
2018-06-01T03:32:17.325Z,99093.10
2018-06-01T03:34:46.211Z,99092.20
2018-06-01T03:37:17.094Z,99089.71
2018-06-01T03:39:46.458Z,99091.51
2018-06-01T03:42:15.376Z,99093.22
2018-06-01T03:44:44.570Z,99095.84
2018-06-01T03:47:13.375Z,99093.66
2018-06-01T03:49:41.980Z,99099.03
2018-06-01T03:52:10.890Z,99100.89
2018-06-01T03:54:39.700Z,99103.91
2018-06-01T03:57:08.539Z,99103.85
2018-06-01T03:59:37.211Z,99107.75
2018-06-01T04:02:05.993Z,99106.91
2018-06-01T04:04:35.460Z,99100.55
2018-06-01T04:07:04.312Z,99102.63
2018-06-01T04:09:33.650Z,99107.00
2018-06-01T04:12:04.623Z,99108.17
2018-06-01T04:14:34.172Z,99109.44
2018-06-01T04:17:02.901Z,99115.69
2018-06-01T04:19:31.594Z,99113.20
2018-06-01T04:22:00.172Z,99115.64
2018-06-01T04:24:29.622Z,99112.29
2018-06-01T04:26:58.328Z,99117.50
2018-06-01T04:29:27.143Z,99118.77
2018-06-01T04:31:55.951Z,99117.96
2018-06-01T04:34:24.621Z,99116.39
2018-06-01T04:36:53.413Z,99114.38
2018-06-01T04:39:23.766Z,99122.39
2018-06-01T04:41:54.663Z,99121.08
2018-06-01T04:44:23.277Z,99127.13
2018-06-01T04:46:52.095Z,99130.33
2018-06-01T04:49:21.042Z,99123.77
2018-06-01T04:51:50.525Z,99122.20
2018-06-01T04:54:19.212Z,99123.61
2018-06-01T04:56:48.042Z,99129.05
2018-06-01T04:59:16.969Z,99129.00
2018-06-01T05:01:46.271Z,99137.76
2018-06-01T05:04:15.077Z,99138.40
2018-06-01T05:06:43.856Z,99143.61
2018-06-01T05:09:13.818Z,99144.38
2018-06-01T05:11:43.763Z,99146.00
2018-06-01T05:14:12.352Z,99141.77
2018-06-01T05:16:42.850Z,99145.69
2018-06-01T05:19:12.209Z,99144.98
2018-06-01T05:21:41.773Z,99141.15
2018-06-01T05:24:10.471Z,99146.94
2018-06-01T05:26:39.297Z,99148.59
2018-06-01T05:29:08.207Z,99146.80
2018-06-01T05:31:37.808Z,99146.42
2018-06-01T05:34:07.366Z,99144.02
2018-06-01T05:36:36.272Z,99150.86
2018-06-01T05:39:07.395Z,99149.95
2018-06-01T05:41:36.444Z,99153.47
2018-06-01T05:44:05.267Z,99162.44
2018-06-01T05:46:34.072Z,99161.44
2018-06-01T05:49:02.980Z,99156.09
2018-06-01T05:51:31.738Z,99154.19
2018-06-01T05:54:00.502Z,99153.67
2018-06-01T05:56:29.413Z,99153.23
2018-06-01T05:58:58.599Z,99158.42
2018-06-01T06:01:28.212Z,99157.55
2018-06-01T06:03:58.200Z,99161.32
2018-06-01T06:06:27.305Z,99167.54
2018-06-01T06:08:58.915Z,99169.50
2018-06-01T06:11:27.783Z,99165.67
2018-06-01T06:13:56.494Z,99169.27
2018-06-01T06:16:25.316Z,99163.34
2018-06-01T06:18:53.874Z,99168.83
2018-06-01T06:21:22.618Z,99169.16
2018-06-01T06:23:52.117Z,99177.69
2018-06-01T06:26:21.683Z,99176.89
2018-06-01T06:28:50.796Z,99177.37
2018-06-01T06:31:19.957Z,99178.81
2018-06-01T06:33:49.034Z,99179.13
2018-06-01T06:36:18.453Z,99187.03
2018-06-01T06:38:48.230Z,99183.28
2018-06-01T06:41:17.420Z,99183.11
2018-06-01T06:43:46.426Z,99179.33
2018-06-01T06:46:15.143Z,99179.45
2018-06-01T06:48:43.894Z,99176.36
2018-06-01T06:51:12.753Z,99181.60
2018-06-01T06:53:43.302Z,99175.23
2018-06-01T06:56:12.011Z,99178.09
2018-06-01T06:58:40.952Z,99174.80
2018-06-01T07:01:09.742Z,99181.20
2018-06-01T07:03:38.650Z,99177.33
2018-06-01T07:06:07.657Z,99177.10
2018-06-01T07:08:37.035Z,99174.81
2018-06-01T07:11:06.970Z,99173.51
2018-06-01T07:13:35.722Z,99181.83
2018-06-01T07:16:04.541Z,99172.34
2018-06-01T07:18:33.403Z,99171.41
2018-06-01T07:21:02.814Z,99169.86
2018-06-01T07:23:33.067Z,99166.83
2018-06-01T07:26:03.257Z,99158.50
2018-06-01T07:28:33.413Z,99165.66
2018-06-01T07:31:04.319Z,99167.70
2018-06-01T07:33:33.761Z,99165.47
2018-06-01T07:36:03.509Z,99167.11
2018-06-01T07:38:32.197Z,99161.94
2018-06-01T07:41:00.922Z,99165.92
2018-06-01T07:43:29.682Z,99168.48
2018-06-01T07:45:59.901Z,99170.94
2018-06-01T07:48:28.790Z,99163.09
2018-06-01T07:50:57.605Z,99162.91
2018-06-01T07:53:26.432Z,99165.47
2018-06-01T07:55:55.220Z,99165.16
2018-06-01T07:58:24.139Z,99174.22
2018-06-01T08:00:52.946Z,99177.92
2018-06-01T08:03:22.373Z,99182.70
2018-06-01T08:05:52.042Z,99182.59
2018-06-01T08:08:21.355Z,99175.97
2018-06-01T08:10:50.235Z,99178.75
2018-06-01T08:13:19.049Z,99180.20
2018-06-01T08:15:47.683Z,99178.80
2018-06-01T08:18:17.238Z,99177.34
2018-06-01T08:20:46.596Z,99169.25
2018-06-01T08:23:16.331Z,99176.13
2018-06-01T08:25:45.310Z,99177.37
2018-06-01T08:28:14.963Z,99183.57
2018-06-01T08:30:43.946Z,99182.39
2018-06-01T08:33:14.284Z,99186.08
2018-06-01T08:35:44.403Z,99181.72
2018-06-01T08:38:13.293Z,99176.97
2018-06-01T08:40:41.875Z,99179.19
2018-06-01T08:43:10.696Z,99181.44
2018-06-01T08:45:39.461Z,99177.64
2018-06-01T08:48:08.344Z,99173.90
2018-06-01T08:50:37.040Z,99180.71
2018-06-01T08:53:06.714Z,99182.02
2018-06-01T08:55:35.794Z,99187.09
2018-06-01T08:58:04.971Z,99182.53
2018-06-01T09:00:35.035Z,99188.44
2018-06-01T09:03:04.512Z,99186.69
2018-06-01T09:05:34.400Z,99186.48
2018-06-01T09:08:04.346Z,99193.57
2018-06-01T09:10:33.081Z,99202.73
2018-06-01T09:13:02.196Z,99201.00
2018-06-01T09:15:31.373Z,99196.13
2018-06-01T09:18:00.782Z,99191.83
2018-06-01T09:20:29.556Z,99195.41
2018-06-01T09:22:59.041Z,99190.54
2018-06-01T09:25:27.726Z,99188.69
2018-06-01T09:27:57.156Z,99187.70
2018-06-01T09:30:26.216Z,99182.03
2018-06-01T09:32:55.607Z,99191.01
2018-06-01T09:35:25.674Z,99195.84
2018-06-01T09:37:54.812Z,99196.55
2018-06-01T09:40:23.843Z,99191.45
2018-06-01T09:42:53.631Z,99184.20
2018-06-01T09:45:23.337Z,99178.16
2018-06-01T09:47:52.258Z,99182.82
2018-06-01T09:50:21.157Z,99178.22
2018-06-01T09:52:49.955Z,99174.48
2018-06-01T09:55:18.888Z,99174.75
2018-06-01T09:57:48.522Z,99168.80
2018-06-01T10:00:17.212Z,99166.34
2018-06-01T10:02:46.899Z,99174.02
2018-06-01T10:05:17.278Z,99163.55
2018-06-01T10:07:47.341Z,99164.90
2018-06-01T10:10:21.869Z,99172.74
2018-06-01T10:12:51.023Z,99164.59
2018-06-01T10:15:19.787Z,99165.79
2018-06-01T10:17:50.263Z,99170.67
2018-06-01T10:20:18.935Z,99162.95
2018-06-01T10:22:47.498Z,99166.02
2018-06-01T10:25:16.278Z,99171.02
2018-06-01T10:27:45.548Z,99159.03
2018-06-01T10:30:15.857Z,99154.69
2018-06-01T10:32:44.745Z,99140.86
2018-06-01T10:35:13.924Z,99150.24
2018-06-01T10:37:43.779Z,99146.13
2018-06-01T10:40:14.327Z,99144.44
2018-06-01T10:42:43.238Z,99141.44
2018-06-01T10:45:13.603Z,99147.67
2018-06-01T10:47:42.333Z,99141.65
2018-06-01T10:50:11.004Z,99145.88
2018-06-01T10:52:39.824Z,99142.38
2018-06-01T10:55:08.659Z,99126.51
2018-06-01T10:57:38.732Z,99136.61
2018-06-01T11:00:08.074Z,99130.59
2018-06-01T11:02:37.911Z,99124.61
2018-06-01T11:05:07.869Z,99117.61
2018-06-01T11:07:37.293Z,99118.42
2018-06-01T11:10:06.508Z,99113.29
2018-06-01T11:12:36.246Z,99115.72
2018-06-01T11:15:05.061Z,99118.25
2018-06-01T11:17:33.864Z,99117.78
2018-06-01T11:20:02.553Z,99114.00
2018-06-01T11:22:31.524Z,99101.47
2018-06-01T11:25:01.814Z,99100.36
2018-06-01T11:27:32.234Z,99101.09
2018-06-01T11:30:01.996Z,99098.67
2018-06-01T11:32:30.903Z,99095.56
2018-06-01T11:35:00.764Z,99094.63
2018-06-01T11:37:29.670Z,99089.52
2018-06-01T11:39:58.477Z,99096.59
2018-06-01T11:42:27.551Z,99092.50
2018-06-01T11:44:56.652Z,99083.80
2018-06-01T11:47:28.348Z,99095.55
2018-06-01T11:49:57.917Z,99081.52
2018-06-01T11:52:27.514Z,99081.77
2018-06-01T11:54:57.918Z,99082.49
2018-06-01T11:57:26.599Z,99082.17
2018-06-01T11:59:56.028Z,99078.54
2018-06-01T12:02:25.037Z,99078.58
2018-06-01T12:04:53.948Z,99082.63
2018-06-01T12:07:23.071Z,99077.83
2018-06-01T12:09:51.752Z,99075.95
2018-06-01T12:12:21.402Z,99071.61
2018-06-01T12:14:50.317Z,99081.13
2018-06-01T12:17:19.285Z,99077.86
2018-06-01T12:19:48.072Z,99080.01
2018-06-01T12:22:17.346Z,99076.50
2018-06-01T12:24:46.893Z,99070.72
2018-06-01T12:27:16.183Z,99072.51
2018-06-01T12:29:45.270Z,99066.84
2018-06-01T12:32:14.353Z,99061.47
2018-06-01T12:34:43.457Z,99065.39
2018-06-01T12:37:12.058Z,99064.75
2018-06-01T12:39:40.828Z,99065.52
2018-06-01T12:42:10.490Z,99059.89
2018-06-01T12:44:39.527Z,99054.20
2018-06-01T12:47:08.337Z,99053.42
2018-06-01T12:49:37.662Z,99055.85
2018-06-01T12:52:08.309Z,99053.88
2018-06-01T12:54:38.447Z,99058.63
2018-06-01T12:57:07.958Z,99053.63
2018-06-01T12:59:37.449Z,99050.24
2018-06-01T13:02:07.317Z,99056.89
2018-06-01T13:04:36.534Z,99044.77
2018-06-01T13:07:05.940Z,99036.48
2018-06-01T13:09:35.946Z,99041.45
2018-06-01T13:12:06.469Z,99036.28
2018-06-01T13:14:36.709Z,99035.88
2018-06-01T13:17:07.266Z,99039.88
2018-06-01T13:19:37.368Z,99033.00
2018-06-01T13:22:08.317Z,99027.26
2018-06-01T13:24:38.569Z,99025.10
2018-06-01T13:27:07.505Z,99025.53
2018-06-01T13:29:36.429Z,99025.89
2018-06-01T13:32:06.145Z,99025.39
2018-06-01T13:34:36.412Z,99027.11
2018-06-01T13:37:07.036Z,99028.20
2018-06-01T13:39:36.971Z,99027.76
2018-06-01T13:42:07.762Z,99012.99
2018-06-01T13:44:38.580Z,99020.89
2018-06-01T13:47:08.781Z,99012.23
2018-06-01T13:49:37.609Z,99009.31
2018-06-01T13:52:08.982Z,99019.42
2018-06-01T13:54:38.015Z,99006.08
2018-06-01T13:57:08.723Z,99006.92
2018-06-01T13:59:38.461Z,99002.02
2018-06-01T14:02:08.469Z,98998.95
2018-06-01T14:04:39.891Z,99000.56
2018-06-01T14:07:10.203Z,98996.08
2018-06-01T14:09:40.459Z,99002.04
2018-06-01T14:12:11.438Z,98997.36
2018-06-01T14:14:40.264Z,98993.88
2018-06-01T14:17:09.101Z,98991.92
2018-06-01T14:19:38.318Z,98991.16
2018-06-01T14:22:08.040Z,98983.84
2018-06-01T14:24:37.160Z,98984.88
2018-06-01T14:27:07.049Z,98988.48
2018-06-01T14:29:36.620Z,98991.95
2018-06-01T14:32:05.617Z,98985.50
2018-06-01T14:34:35.725Z,98987.99
2018-06-01T14:37:05.576Z,98980.14
2018-06-01T14:39:34.463Z,98978.62
2018-06-01T14:42:04.535Z,98977.38
2018-06-01T14:44:33.249Z,98976.19
2018-06-01T14:47:03.998Z,98980.20
2018-06-01T14:49:33.862Z,98978.06
2018-06-01T14:52:02.879Z,98980.84
2018-06-01T14:54:33.660Z,98966.22
2018-06-01T14:57:04.168Z,98970.61
2018-06-01T14:59:34.369Z,98967.87
2018-06-01T15:02:04.177Z,98963.53
2018-06-01T15:04:33.392Z,98956.25
2018-06-01T15:07:02.951Z,98960.00
2018-06-01T15:09:33.897Z,98958.22
2018-06-01T15:12:03.869Z,98946.44
2018-06-01T15:14:33.594Z,98952.24
2018-06-01T15:17:03.694Z,98952.33
2018-06-01T15:19:34.482Z,98947.04
2018-06-01T15:22:05.350Z,98949.33
2018-06-01T15:24:35.121Z,98953.02
2018-06-01T15:27:04.842Z,98938.43
2018-06-01T15:29:34.340Z,98945.50
2018-06-01T15:32:05.600Z,98938.20
2018-06-01T15:34:34.492Z,98939.27
2018-06-01T15:37:04.103Z,98934.53
2018-06-01T15:39:33.858Z,98930.73
2018-06-01T15:42:02.891Z,98930.33
2018-06-01T15:44:31.837Z,98928.73
2018-06-01T15:47:01.809Z,98929.06
2018-06-01T15:49:31.689Z,98934.72
2018-06-01T15:52:01.061Z,98929.53
2018-06-01T15:54:31.261Z,98930.30
2018-06-01T15:57:00.056Z,98926.45
2018-06-01T15:59:28.907Z,98927.54
2018-06-01T16:01:57.853Z,98922.44
2018-06-01T16:04:27.633Z,98919.43
2018-06-01T16:06:57.772Z,98925.91
2018-06-01T16:09:27.989Z,98914.84
2018-06-01T16:11:56.797Z,98915.52
2018-06-01T16:14:26.632Z,98921.59
2018-06-01T16:16:56.872Z,98918.72
2018-06-01T16:19:26.828Z,98915.76
2018-06-01T16:21:56.360Z,98915.34
2018-06-01T16:24:27.317Z,98917.05
2018-06-01T16:26:57.080Z,98924.19
2018-06-01T16:29:26.867Z,98913.90
2018-06-01T16:31:55.812Z,98913.53
2018-06-01T16:34:26.728Z,98920.70
2018-06-01T16:36:55.710Z,98920.45
2018-06-01T16:39:25.708Z,98916.19
2018-06-01T16:41:54.839Z,98922.67
2018-06-01T16:44:24.963Z,98918.45
2018-06-01T16:46:54.254Z,98926.30
2018-06-01T16:49:23.537Z,98918.20
2018-06-01T16:51:53.090Z,98921.36
2018-06-01T16:54:22.501Z,98916.00
2018-06-01T16:56:53.065Z,98919.77
2018-06-01T16:59:22.143Z,98917.62
2018-06-01T17:01:52.174Z,98918.23
2018-06-01T17:04:21.149Z,98918.92
2018-06-01T17:06:51.735Z,98918.19
2018-06-01T17:09:22.727Z,98918.46
2018-06-01T17:11:52.959Z,98917.34
2018-06-01T17:14:23.484Z,98920.19
2018-06-01T17:16:53.280Z,98921.29
2018-06-01T17:19:24.762Z,98923.50
2018-06-01T17:21:55.066Z,98923.09
2018-06-01T17:24:24.429Z,98925.81
2018-06-01T17:26:53.229Z,98925.11
2018-06-01T17:29:23.754Z,98937.19
2018-06-01T17:31:54.325Z,98932.39
2018-06-01T17:34:24.277Z,98935.00
2018-06-01T17:36:54.103Z,98931.36
2018-06-01T17:39:24.419Z,98936.55
2018-06-01T17:41:55.457Z,98942.48
2018-06-01T17:44:25.210Z,98936.06
2018-06-01T17:46:54.183Z,98940.92
2018-06-01T17:49:23.462Z,98950.76
2018-06-01T17:51:52.816Z,98945.39
2018-06-01T17:54:22.977Z,98947.66
2018-06-01T17:56:52.105Z,98939.50
2018-06-01T17:59:23.017Z,98946.20
2018-06-01T18:01:52.483Z,98943.11
2018-06-01T18:04:22.862Z,98938.55
2018-06-01T18:06:53.087Z,98946.90
2018-06-01T18:09:22.468Z,98943.08
2018-06-01T18:11:52.268Z,98947.39
2018-06-01T18:14:22.589Z,98948.72
2018-06-01T18:16:52.171Z,98945.28
2018-06-01T18:19:22.125Z,98946.00
2018-06-01T18:21:51.499Z,98949.79
2018-06-01T18:24:23.065Z,98954.13
2018-06-01T18:26:53.123Z,98957.28
2018-06-01T18:29:23.641Z,98955.50
2018-06-01T18:31:52.672Z,98954.09
2018-06-01T18:34:22.496Z,98958.89
2018-06-01T18:36:51.824Z,98967.30
2018-06-01T18:39:20.974Z,98965.58
2018-06-01T18:41:49.836Z,98962.70
2018-06-01T18:44:20.109Z,98967.06
2018-06-01T18:46:49.432Z,98968.49
2018-06-01T18:49:18.553Z,98970.84
2018-06-01T18:51:48.556Z,98977.76
2018-06-01T18:54:18.746Z,98974.22
2018-06-01T18:56:47.585Z,98983.59
2018-06-01T18:59:17.451Z,98987.33
2018-06-01T19:01:46.513Z,98990.95
2018-06-01T19:04:15.360Z,98992.46
2018-06-01T19:06:46.003Z,98998.06
2018-06-01T19:09:15.681Z,98990.91
2018-06-01T19:11:44.787Z,98995.89
2018-06-01T19:14:13.905Z,98998.17
2018-06-01T19:16:43.556Z,99002.05
2018-06-01T19:19:13.380Z,99002.91
2018-06-01T19:21:43.095Z,99010.34
2018-06-01T19:24:11.966Z,99018.69
2018-06-01T19:26:42.077Z,99025.13
2018-06-01T19:29:10.911Z,99025.72
2018-06-01T19:31:40.156Z,99034.95
2018-06-01T19:34:09.306Z,99031.94
2018-06-01T19:36:41.190Z,99038.77
2018-06-01T19:39:10.450Z,99047.92
2018-06-01T19:41:40.489Z,99046.50
2018-06-01T19:44:11.059Z,99047.70
2018-06-01T19:46:41.047Z,99052.12
2018-06-01T19:49:11.098Z,99054.11
2018-06-01T19:51:42.927Z,99055.23
2018-06-01T19:54:11.814Z,99061.14
2018-06-01T19:56:41.383Z,99066.83
2018-06-01T19:59:11.273Z,99075.42
2018-06-01T20:01:41.052Z,99067.27
2018-06-01T20:04:10.907Z,99076.81
2018-06-01T20:06:41.131Z,99069.47
2018-06-01T20:09:11.412Z,99068.22
2018-06-01T20:11:41.068Z,99073.55
2018-06-01T20:14:10.870Z,99077.54
2018-06-01T20:16:39.613Z,99073.80
2018-06-01T20:19:08.357Z,99071.74
2018-06-01T20:21:37.682Z,99075.88
2018-06-01T20:24:06.709Z,99083.70
2018-06-01T20:26:35.587Z,99081.43
2018-06-01T20:29:05.531Z,99092.83
2018-06-01T20:31:34.713Z,99091.56
2018-06-01T20:34:04.492Z,99087.62
2018-06-01T20:36:33.948Z,99093.75
2018-06-01T20:39:03.745Z,99097.31
2018-06-01T20:41:33.368Z,99090.25
2018-06-01T20:44:02.604Z,99092.66
2018-06-01T20:46:31.860Z,99090.81
2018-06-01T20:49:01.937Z,99091.98
2018-06-01T20:51:32.486Z,99096.77
2018-06-01T20:54:02.391Z,99099.34
2018-06-01T20:56:32.135Z,99096.08
2018-06-01T20:59:02.111Z,99097.65
2018-06-01T21:01:32.187Z,99098.31
2018-06-01T21:04:02.646Z,99106.33
2018-06-01T21:06:32.663Z,99107.39
2018-06-01T21:09:02.960Z,99104.06
2018-06-01T21:11:33.703Z,99102.42
2018-06-01T21:14:02.783Z,99104.54
2018-06-01T21:16:31.868Z,99103.37
2018-06-01T21:19:01.827Z,99112.28
2018-06-01T21:21:31.602Z,99113.46
2018-06-01T21:24:00.422Z,99115.49
2018-06-01T21:26:29.335Z,99113.00
2018-06-01T21:28:59.382Z,99114.75
2018-06-01T21:31:28.947Z,99121.15
2018-06-01T21:33:58.523Z,99120.52
2018-06-01T21:36:27.870Z,99113.57
2018-06-01T21:38:57.085Z,99109.47
2018-06-01T21:41:27.404Z,99112.70
2018-06-01T21:43:56.789Z,99110.13
2018-06-01T21:46:25.736Z,99115.33
2018-06-01T21:48:54.557Z,99119.09
2018-06-01T21:51:23.307Z,99117.13
2018-06-01T21:53:52.039Z,99118.65
2018-06-01T21:56:22.813Z,99117.16
2018-06-01T21:58:52.702Z,99112.13
2018-06-01T22:01:21.635Z,99110.35
2018-06-01T22:03:51.069Z,99113.94
2018-06-01T22:06:20.833Z,99115.88
2018-06-01T22:08:50.039Z,99116.62
2018-06-01T22:11:19.507Z,99119.17
2018-06-01T22:13:48.566Z,99116.69
2018-06-01T22:16:18.177Z,99117.59
2018-06-01T22:18:47.132Z,99117.42
2018-06-01T22:21:15.952Z,99119.39
2018-06-01T22:23:44.878Z,99124.36
2018-06-01T22:26:14.866Z,99128.16
2018-06-01T22:28:45.138Z,99130.22
2018-06-01T22:31:13.949Z,99138.12
2018-06-01T22:33:42.963Z,99136.13
2018-06-01T22:36:11.854Z,99135.33
2018-06-01T22:38:42.048Z,99141.95
2018-06-01T22:41:11.042Z,99137.20
2018-06-01T22:43:40.865Z,99134.27
2018-06-01T22:46:10.791Z,99135.00
2018-06-01T22:48:39.693Z,99143.44
2018-06-01T22:51:08.692Z,99142.02
2018-06-01T22:53:39.270Z,99145.63
2018-06-01T22:56:08.332Z,99145.80
2018-06-01T22:58:37.919Z,99148.81
2018-06-01T23:01:07.380Z,99147.91
2018-06-01T23:03:36.859Z,99143.12
2018-06-01T23:06:05.918Z,99140.00
2018-06-01T23:08:34.596Z,99145.21
2018-06-01T23:11:03.389Z,99154.78
2018-06-01T23:13:32.063Z,99149.29
2018-06-01T23:16:01.337Z,99151.19
2018-06-01T23:18:30.340Z,99149.69
2018-06-01T23:20:58.940Z,99145.47
2018-06-01T23:23:28.141Z,99138.95
2018-06-01T23:25:57.592Z,99139.95
2018-06-01T23:28:26.722Z,99137.39
2018-06-01T23:30:55.741Z,99134.70
2018-06-01T23:33:24.947Z,99129.97
2018-06-01T23:35:54.514Z,99132.55
2018-06-01T23:38:23.225Z,99128.02
2018-06-01T23:40:51.996Z,99147.77
2018-06-01T23:43:20.859Z,99139.27
2018-06-01T23:45:49.800Z,99142.96
2018-06-01T23:48:18.572Z,99141.52
2018-06-01T23:50:47.316Z,99139.91
2018-06-01T23:53:17.067Z,99138.43
2018-06-01T23:55:47.138Z,99141.55
2018-06-01T23:58:16.589Z,99141.47
